M. Luther — WDC7372 — position and weather

sailwx.info

Track history (hours):
 
Tides and Currents Weather Stations Pressure Air Temp Water Temp Dewpoint Dewpoint Depression Visibility Wind Speed Wind Dir Waves Ship Positions

M. Luther

Owner: Salmon Bay Barge Line, Inc., Seattle, WA. More information available from US FCC via Universal Licensing System and Coast Guard Vessel Documentation Center.

Last reported at 2016-Jan-31 17:20 UTC. Time now 2016-Feb-13 19:24 UTC.
Position N 47°33' W 122°21'.
Warning: this ship's position is 13 days out of date.

Length 28 m; draft 4.1 m.

Type: Tug. MMSI: 367070410.

Date/timePositionNaut miles runAvg speedWind from/ knotsBaromVisibWave heightAir tempDewpointWater temp
2016-Jan-31 17:20N 47°33' W 122°21'0 0.3
2016-Jan-31 16:33N 47°33' W 122°21'4 4.0
2016-Jan-31 15:33N 47°37' W 122°24'6 6.1
2016-Jan-31 14:33N 47°42' W 122°28'7 7.0
2016-Jan-31 13:33N 47°49' W 122°28'7 7.1
2016-Jan-31 12:33N 47°55' W 122°32'7 6.8
2016-Jan-31 11:33N 48°01' W 122°38'7 6.0
2016-Jan-31 10:24N 48°07' W 122°41'4 4.2
2016-Jan-31 09:33N 48°10' W 122°45'4 3.6
2016-Jan-31 08:31N 48°13' W 122°49'5 5.0
2016-Jan-31 07:27N 48°18' W 122°48'5 5.1
2016-Jan-31 06:33N 48°22' W 122°46'5 4.7
2016-Jan-31 05:33N 48°27' W 122°45'4 4.1
2016-Jan-31 04:33N 48°31' W 122°45'4 4.3
2016-Jan-31 03:33N 48°35' W 122°46'5 4.7
2016-Jan-31 02:33N 48°40' W 122°44'5 5.2
2016-Jan-31 01:33N 48°45' W 122°47'5 5.4
2016-Jan-31 00:33N 48°47' W 122°54'6 5.9
2016-Jan-30 23:33N 48°51' W 123°02'6 5.8
2016-Jan-30 22:33N 48°54' W 123°09'7 6.7
2016-Jan-30 21:33N 48°59' W 123°16'6 5.9
2016-Jan-30 20:33N 49°04' W 123°20'6 6.2
2016-Jan-30 19:33N 49°08' W 123°13'6 6.4
2016-Jan-30 18:33N 49°09' W 123°03'2 1.9
2016-Jan-30 17:33N 49°09' W 123°00'0 0.0
2016-Jan-30 16:31N 49°09' W 123°00'0 0.0
2016-Jan-30 15:31N 49°09' W 123°00'0 0.0
2016-Jan-30 14:31N 49°09' W 123°00'0 0.0
2016-Jan-30 13:31N 49°09' W 123°00'0 0.0
2016-Jan-30 12:31N 49°09' W 123°00'0 0.0
2016-Jan-30 11:31N 49°09' W 123°00'0 0.0
2016-Jan-30 10:34N 49°09' W 123°00'0 0.0
2016-Jan-30 09:34N 49°09' W 123°00'0 0.0
2016-Jan-30 08:33N 49°09' W 123°00'0 0.0
2016-Jan-30 07:33N 49°09' W 123°00'0 0.0
2016-Jan-30 06:33N 49°09' W 123°00'0 0.0
2016-Jan-30 05:33N 49°09' W 123°00'0 0.0
2016-Jan-30 04:33N 49°09' W 123°00'0 0.0
2016-Jan-30 03:33N 49°09' W 123°00'0 0.0
2016-Jan-30 02:33N 49°09' W 123°00'0 0.0
2016-Jan-30 01:33N 49°09' W 123°00'0 0.0
2016-Jan-30 00:33N 49°09' W 123°00'0 0.0
2016-Jan-29 23:33N 49°09' W 123°00'0 0.0
2016-Jan-29 22:33N 49°09' W 123°00'0 0.0
2016-Jan-29 21:33N 49°09' W 123°00'0 0.0
2016-Jan-29 20:33N 49°09' W 123°00'0 0.0
2016-Jan-29 19:33N 49°09' W 123°00'0 0.0
2016-Jan-29 18:33N 49°09' W 123°00'0 0.0
2016-Jan-29 17:33N 49°09' W 123°00'0 0.0
2016-Jan-29 16:33N 49°09' W 123°00'0 0.0
2016-Jan-29 15:33N 49°09' W 123°00'0 0.0
2016-Jan-29 14:33N 49°09' W 123°00'0 0.0
2016-Jan-29 13:33N 49°09' W 123°00'0 0.0
2016-Jan-29 12:33N 49°09' W 123°00'0 0.0
2016-Jan-29 11:33N 49°09' W 123°00'0 0.0
2016-Jan-29 10:33N 49°09' W 123°00'0 0.0
2016-Jan-29 09:33N 49°09' W 123°00'0 0.0
2016-Jan-29 08:33N 49°09' W 123°00'0 0.0
2016-Jan-29 07:33N 49°09' W 123°00'0 0.0
2016-Jan-29 06:33N 49°09' W 123°00'0 0.0
2016-Jan-29 05:33N 49°09' W 123°00'0 0.0
2016-Jan-29 04:33N 49°09' W 123°00'0 0.0
2016-Jan-29 03:33N 49°09' W 123°00'0 0.0
2016-Jan-29 02:33N 49°09' W 123°00'0 0.0
2016-Jan-29 01:33N 49°09' W 123°00'0 0.0
2016-Jan-29 00:33N 49°09' W 123°00'0 0.0
2016-Jan-28 23:30N 49°09' W 123°00'0 0.0
2016-Jan-28 22:33N 49°09' W 123°00'0 0.0
2016-Jan-28 21:32N 49°09' W 123°00'1 1.2
2016-Jan-28 20:33N 49°09' W 123°02'4 4.5
2016-Jan-28 19:34N 49°06' W 123°08'5 5.4
2016-Jan-28 18:33N 49°07' W 123°16'4 4.3
2016-Jan-28 17:34N 49°03' W 123°18'5 5.1
2016-Jan-28 16:34N 48°60' W 123°12'5 5.1
2016-Jan-28 15:34N 48°56' W 123°06'5 5.1
2016-Jan-28 14:33N 48°53' W 123°01'5 5.2
2016-Jan-28 13:33N 48°49' W 122°55'5 5.0
2016-Jan-28 12:33N 48°47' W 122°48'5 5.3
2016-Jan-28 11:33N 48°42' W 122°43'5 4.9
2016-Jan-28 10:33N 48°38' W 122°44'6 5.7
2016-Jan-28 09:33N 48°32' W 122°45'5 5.0
2016-Jan-28 08:33N 48°27' W 122°44'5 5.0
2016-Jan-28 07:33N 48°22' W 122°45'7 5.9
2016-Jan-28 06:26N 48°16' W 122°48'8 8.1
2016-Jan-28 05:26N 48°08' W 122°42'8 8.8
2016-Jan-28 04:31N 48°01' W 122°36'8 7.9
2016-Jan-28 03:34N 47°55' W 122°29'7 7.4
2016-Jan-28 02:34N 47°48' W 122°26'7 6.9
2016-Jan-28 01:34N 47°41' W 122°27'6 6.3
2016-Jan-28 00:34N 47°36' W 122°22'3 2.8
2016-Jan-27 23:33N 47°33' W 122°21'0 0.0
2016-Jan-27 22:32N 47°33' W 122°21'0 0.0
2016-Jan-27 21:32N 47°33' W 122°21'0 0.0
2016-Jan-27 20:32N 47°33' W 122°21'0 0.0
2016-Jan-27 19:33N 47°33' W 122°21'0 0.0
2016-Jan-27 18:33N 47°33' W 122°21'0 0.0
2016-Jan-27 17:32N 47°33' W 122°21'0 0.0
2016-Jan-27 16:26N 47°33' W 122°21'0 0.0
2016-Jan-27 15:32N 47°33' W 122°21'0 0.0
2016-Jan-27 14:32N 47°33' W 122°21'0 0.0
2016-Jan-27 13:32N 47°33' W 122°21'0 0.0
2016-Jan-27 12:32N 47°33' W 122°21'0 0.0
2016-Jan-27 11:32N 47°33' W 122°21'0 0.0
2016-Jan-27 10:32N 47°33' W 122°21'0 0.0
2016-Jan-27 09:32N 47°33' W 122°21'0 0.0
2016-Jan-27 08:32N 47°33' W 122°21'0 0.0
2016-Jan-27 07:32N 47°33' W 122°21'0 0.0
2016-Jan-27 06:32N 47°33' W 122°21'0 0.0
2016-Jan-27 05:32N 47°33' W 122°21'0 0.0
2016-Jan-27 04:32N 47°33' W 122°21'0 0.0
2016-Jan-27 03:32N 47°33' W 122°21'0 0.0
2016-Jan-27 02:32N 47°33' W 122°21'0 0.0
2016-Jan-27 01:32N 47°33' W 122°21'0 0.0
2016-Jan-27 00:32N 47°33' W 122°21'  
2016-Jan-23 05:33N 47°33' W 122°21'0 0.1
2016-Jan-23 04:33N 47°33' W 122°21'4 3.7
2016-Jan-23 03:33N 47°36' W 122°24'5 4.7
2016-Jan-23 02:34N 47°40' W 122°29'6 5.7
2016-Jan-23 01:33N 47°45' W 122°27'6 5.6
2016-Jan-23 00:33N 47°51' W 122°29'6 5.6
2016-Jan-22 23:33N 47°56' W 122°32'7 6.3
2016-Jan-22 22:31N 48°01' W 122°38'25 6.3
2016-Jan-22 18:29N 48°26' W 122°45'7 7.4
2016-Jan-22 17:33N 48°33' W 122°45'7 7.3
2016-Jan-22 16:33N 48°40' W 122°43'7 6.8
2016-Jan-22 15:32N 48°46' W 122°49'7 7.3
2016-Jan-22 14:33N 48°50' W 122°58'6 6.0
2016-Jan-22 13:33N 48°53' W 123°06'6 5.9
2016-Jan-22 12:33N 48°57' W 123°13'6 5.7
2016-Jan-22 11:33N 49°01' W 123°19'5 4.9
2016-Jan-22 10:33N 49°06' W 123°19'4 4.2
2016-Jan-22 09:33N 49°08' W 123°13'5 5.4
2016-Jan-22 08:33N 49°07' W 123°05'4 4.0
2016-Jan-22 07:32N 49°09' W 123°00'0 0.0
2016-Jan-22 06:32N 49°09' W 123°00'0 0.0
2016-Jan-22 05:32N 49°09' W 123°00'0 0.0
2016-Jan-22 04:32N 49°09' W 123°00'0 0.0
2016-Jan-22 03:32N 49°09' W 123°00'0 0.0
2016-Jan-22 02:32N 49°09' W 123°00'0 0.0
2016-Jan-22 01:32N 49°09' W 123°00'0 0.0
2016-Jan-22 00:32N 49°09' W 123°00'0 0.0
2016-Jan-21 23:32N 49°09' W 123°00'0 0.0
2016-Jan-21 22:29N 49°09' W 123°00'0 0.0
2016-Jan-21 21:32N 49°09' W 123°00'0 0.0
2016-Jan-21 20:32N 49°09' W 123°00'0 0.0
2016-Jan-21 19:32N 49°09' W 123°00'0 0.0
2016-Jan-21 18:32N 49°09' W 123°00'0 0.0
2016-Jan-21 17:32N 49°09' W 123°00'  
Track history (hours):
 
Tides and Currents Weather Stations Pressure Air Temp Water Temp Dewpoint Dewpoint Depression Visibility Wind Speed Wind Dir Waves Ship Positions

M. Luther

Owner: Salmon Bay Barge Line, Inc., Seattle, WA. More information available from US FCC via Universal Licensing System and Coast Guard Vessel Documentation Center.

Last reported at 2016-Jan-31 17:20 UTC. Time now 2016-Feb-13 19:24 UTC.
Position N 47°33' W 122°21'.
Warning: this ship's position is 13 days out of date.

Length 28 m; draft 4.1 m.

Type: Tug. MMSI: 367070410.

Date/timePositionNaut miles runAvg speedWind from/ knotsBaromVisibWave heightAir tempDewpointWater temp
2016-Jan-31 17:20N 47°33' W 122°21'0 0.3
2016-Jan-31 16:33N 47°33' W 122°21'4 4.0
2016-Jan-31 15:33N 47°37' W 122°24'6 6.1
2016-Jan-31 14:33N 47°42' W 122°28'7 7.0
2016-Jan-31 13:33N 47°49' W 122°28'7 7.1
2016-Jan-31 12:33N 47°55' W 122°32'7 6.8
2016-Jan-31 11:33N 48°01' W 122°38'7 6.0
2016-Jan-31 10:24N 48°07' W 122°41'4 4.2
2016-Jan-31 09:33N 48°10' W 122°45'4 3.6
2016-Jan-31 08:31N 48°13' W 122°49'5 5.0
2016-Jan-31 07:27N 48°18' W 122°48'5 5.1
2016-Jan-31 06:33N 48°22' W 122°46'5 4.7
2016-Jan-31 05:33N 48°27' W 122°45'4 4.1
2016-Jan-31 04:33N 48°31' W 122°45'4 4.3
2016-Jan-31 03:33N 48°35' W 122°46'5 4.7
2016-Jan-31 02:33N 48°40' W 122°44'5 5.2
2016-Jan-31 01:33N 48°45' W 122°47'5 5.4
2016-Jan-31 00:33N 48°47' W 122°54'6 5.9
2016-Jan-30 23:33N 48°51' W 123°02'6 5.8
2016-Jan-30 22:33N 48°54' W 123°09'7 6.7
2016-Jan-30 21:33N 48°59' W 123°16'6 5.9
2016-Jan-30 20:33N 49°04' W 123°20'6 6.2
2016-Jan-30 19:33N 49°08' W 123°13'6 6.4
2016-Jan-30 18:33N 49°09' W 123°03'2 1.9
2016-Jan-30 17:33N 49°09' W 123°00'0 0.0
2016-Jan-30 16:31N 49°09' W 123°00'0 0.0
2016-Jan-30 15:31N 49°09' W 123°00'0 0.0
2016-Jan-30 14:31N 49°09' W 123°00'0 0.0
2016-Jan-30 13:31N 49°09' W 123°00'0 0.0
2016-Jan-30 12:31N 49°09' W 123°00'0 0.0
2016-Jan-30 11:31N 49°09' W 123°00'0 0.0
2016-Jan-30 10:34N 49°09' W 123°00'0 0.0
2016-Jan-30 09:34N 49°09' W 123°00'0 0.0
2016-Jan-30 08:33N 49°09' W 123°00'0 0.0
2016-Jan-30 07:33N 49°09' W 123°00'0 0.0
2016-Jan-30 06:33N 49°09' W 123°00'0 0.0
2016-Jan-30 05:33N 49°09' W 123°00'0 0.0
2016-Jan-30 04:33N 49°09' W 123°00'0 0.0
2016-Jan-30 03:33N 49°09' W 123°00'0 0.0
2016-Jan-30 02:33N 49°09' W 123°00'0 0.0
2016-Jan-30 01:33N 49°09' W 123°00'0 0.0
2016-Jan-30 00:33N 49°09' W 123°00'0 0.0
2016-Jan-29 23:33N 49°09' W 123°00'0 0.0
2016-Jan-29 22:33N 49°09' W 123°00'0 0.0
2016-Jan-29 21:33N 49°09' W 123°00'0 0.0
2016-Jan-29 20:33N 49°09' W 123°00'0 0.0
2016-Jan-29 19:33N 49°09' W 123°00'0 0.0
2016-Jan-29 18:33N 49°09' W 123°00'0 0.0
2016-Jan-29 17:33N 49°09' W 123°00'0 0.0
2016-Jan-29 16:33N 49°09' W 123°00'0 0.0
2016-Jan-29 15:33N 49°09' W 123°00'0 0.0
2016-Jan-29 14:33N 49°09' W 123°00'0 0.0
2016-Jan-29 13:33N 49°09' W 123°00'0 0.0
2016-Jan-29 12:33N 49°09' W 123°00'0 0.0
2016-Jan-29 11:33N 49°09' W 123°00'0 0.0
2016-Jan-29 10:33N 49°09' W 123°00'0 0.0
2016-Jan-29 09:33N 49°09' W 123°00'0 0.0
2016-Jan-29 08:33N 49°09' W 123°00'0 0.0
2016-Jan-29 07:33N 49°09' W 123°00'0 0.0
2016-Jan-29 06:33N 49°09' W 123°00'0 0.0
2016-Jan-29 05:33N 49°09' W 123°00'0 0.0
2016-Jan-29 04:33N 49°09' W 123°00'0 0.0
2016-Jan-29 03:33N 49°09' W 123°00'0 0.0
2016-Jan-29 02:33N 49°09' W 123°00'0 0.0
2016-Jan-29 01:33N 49°09' W 123°00'0 0.0
2016-Jan-29 00:33N 49°09' W 123°00'0 0.0
2016-Jan-28 23:30N 49°09' W 123°00'0 0.0
2016-Jan-28 22:33N 49°09' W 123°00'0 0.0
2016-Jan-28 21:32N 49°09' W 123°00'1 1.2
2016-Jan-28 20:33N 49°09' W 123°02'4 4.5
2016-Jan-28 19:34N 49°06' W 123°08'5 5.4
2016-Jan-28 18:33N 49°07' W 123°16'4 4.3
2016-Jan-28 17:34N 49°03' W 123°18'5 5.1
2016-Jan-28 16:34N 48°60' W 123°12'5 5.1
2016-Jan-28 15:34N 48°56' W 123°06'5 5.1
2016-Jan-28 14:33N 48°53' W 123°01'5 5.2
2016-Jan-28 13:33N 48°49' W 122°55'5 5.0
2016-Jan-28 12:33N 48°47' W 122°48'5 5.3
2016-Jan-28 11:33N 48°42' W 122°43'5 4.9
2016-Jan-28 10:33N 48°38' W 122°44'6 5.7
2016-Jan-28 09:33N 48°32' W 122°45'5 5.0
2016-Jan-28 08:33N 48°27' W 122°44'5 5.0
2016-Jan-28 07:33N 48°22' W 122°45'7 5.9
2016-Jan-28 06:26N 48°16' W 122°48'8 8.1
2016-Jan-28 05:26N 48°08' W 122°42'8 8.8
2016-Jan-28 04:31N 48°01' W 122°36'8 7.9
2016-Jan-28 03:34N 47°55' W 122°29'7 7.4
2016-Jan-28 02:34N 47°48' W 122°26'7 6.9
2016-Jan-28 01:34N 47°41' W 122°27'6 6.3
2016-Jan-28 00:34N 47°36' W 122°22'3 2.8
2016-Jan-27 23:33N 47°33' W 122°21'0 0.0
2016-Jan-27 22:32N 47°33' W 122°21'0 0.0
2016-Jan-27 21:32N 47°33' W 122°21'0 0.0
2016-Jan-27 20:32N 47°33' W 122°21'0 0.0
2016-Jan-27 19:33N 47°33' W 122°21'0 0.0
2016-Jan-27 18:33N 47°33' W 122°21'0 0.0
2016-Jan-27 17:32N 47°33' W 122°21'0 0.0
2016-Jan-27 16:26N 47°33' W 122°21'0 0.0
2016-Jan-27 15:32N 47°33' W 122°21'0 0.0
2016-Jan-27 14:32N 47°33' W 122°21'0 0.0
2016-Jan-27 13:32N 47°33' W 122°21'0 0.0
2016-Jan-27 12:32N 47°33' W 122°21'0 0.0
2016-Jan-27 11:32N 47°33' W 122°21'0 0.0
2016-Jan-27 10:32N 47°33' W 122°21'0 0.0
2016-Jan-27 09:32N 47°33' W 122°21'0 0.0
2016-Jan-27 08:32N 47°33' W 122°21'0 0.0
2016-Jan-27 07:32N 47°33' W 122°21'0 0.0
2016-Jan-27 06:32N 47°33' W 122°21'0 0.0
2016-Jan-27 05:32N 47°33' W 122°21'0 0.0
2016-Jan-27 04:32N 47°33' W 122°21'0 0.0
2016-Jan-27 03:32N 47°33' W 122°21'0 0.0
2016-Jan-27 02:32N 47°33' W 122°21'0 0.0
2016-Jan-27 01:32N 47°33' W 122°21'0 0.0
2016-Jan-27 00:32N 47°33' W 122°21'  
2016-Jan-23 05:33N 47°33' W 122°21'0 0.1
2016-Jan-23 04:33N 47°33' W 122°21'4 3.7
2016-Jan-23 03:33N 47°36' W 122°24'5 4.7
2016-Jan-23 02:34N 47°40' W 122°29'6 5.7
2016-Jan-23 01:33N 47°45' W 122°27'6 5.6
2016-Jan-23 00:33N 47°51' W 122°29'6 5.6
2016-Jan-22 23:33N 47°56' W 122°32'7 6.3
2016-Jan-22 22:31N 48°01' W 122°38'25 6.3
2016-Jan-22 18:29N 48°26' W 122°45'7 7.4
2016-Jan-22 17:33N 48°33' W 122°45'7 7.3
2016-Jan-22 16:33N 48°40' W 122°43'7 6.8
2016-Jan-22 15:32N 48°46' W 122°49'7 7.3
2016-Jan-22 14:33N 48°50' W 122°58'6 6.0
2016-Jan-22 13:33N 48°53' W 123°06'6 5.9
2016-Jan-22 12:33N 48°57' W 123°13'6 5.7
2016-Jan-22 11:33N 49°01' W 123°19'5 4.9
2016-Jan-22 10:33N 49°06' W 123°19'4 4.2
2016-Jan-22 09:33N 49°08' W 123°13'5 5.4
2016-Jan-22 08:33N 49°07' W 123°05'4 4.0
2016-Jan-22 07:32N 49°09' W 123°00'0 0.0
2016-Jan-22 06:32N 49°09' W 123°00'0 0.0
2016-Jan-22 05:32N 49°09' W 123°00'0 0.0
2016-Jan-22 04:32N 49°09' W 123°00'0 0.0
2016-Jan-22 03:32N 49°09' W 123°00'0 0.0
2016-Jan-22 02:32N 49°09' W 123°00'0 0.0
2016-Jan-22 01:32N 49°09' W 123°00'0 0.0
2016-Jan-22 00:32N 49°09' W 123°00'0 0.0
2016-Jan-21 23:32N 49°09' W 123°00'0 0.0
2016-Jan-21 22:29N 49°09' W 123°00'0 0.0
2016-Jan-21 21:32N 49°09' W 123°00'0 0.0
2016-Jan-21 20:32N 49°09' W 123°00'0 0.0
2016-Jan-21 19:32N 49°09' W 123°00'0 0.0
2016-Jan-21 18:32N 49°09' W 123°00'0 0.0
2016-Jan-21 17:32N 49°09' W 123°00'  

Dump ship's entire track history